sensor_id;sensor_type;location;lat;lon;timestamp;P1;durP1;ratioP1;P2;durP2;ratioP2
5890;SDS011;2971;52.420;7.080;2022-09-09T00:04:15;5.53;;;4.03;;
5890;SDS011;2971;52.420;7.080;2022-09-09T00:06:45;6.30;;;4.03;;
5890;SDS011;2971;52.420;7.080;2022-09-09T00:09:21;6.30;;;4.40;;
5890;SDS011;2971;52.420;7.080;2022-09-09T00:11:54;6.67;;;4.20;;
5890;SDS011;2971;52.420;7.080;2022-09-09T00:14:31;7.17;;;4.50;;
5890;SDS011;2971;52.420;7.080;2022-09-09T00:17:01;6.77;;;4.50;;
5890;SDS011;2971;52.420;7.080;2022-09-09T00:19:29;7.53;;;4.77;;
5890;SDS011;2971;52.420;7.080;2022-09-09T00:24:28;5.23;;;4.30;;
5890;SDS011;2971;52.420;7.080;2022-09-09T00:27:17;5.63;;;4.57;;
5890;SDS011;2971;52.420;7.080;2022-09-09T00:29:42;7.47;;;4.70;;
5890;SDS011;2971;52.420;7.080;2022-09-09T00:32:13;6.50;;;4.67;;
5890;SDS011;2971;52.420;7.080;2022-09-09T00:34:52;6.70;;;4.53;;
5890;SDS011;2971;52.420;7.080;2022-09-09T00:37:19;5.17;;;4.67;;
5890;SDS011;2971;52.420;7.080;2022-09-09T00:39:46;9.10;;;5.20;;
5890;SDS011;2971;52.420;7.080;2022-09-09T00:47:50;7.23;;;4.47;;
5890;SDS011;2971;52.420;7.080;2022-09-09T00:53:16;6.50;;;4.23;;
5890;SDS011;2971;52.420;7.080;2022-09-09T00:58:09;5.87;;;3.83;;
5890;SDS011;2971;52.420;7.080;2022-09-09T01:00:39;6.37;;;4.10;;
5890;SDS011;2971;52.420;7.080;2022-09-09T01:08:28;5.10;;;3.30;;
5890;SDS011;2971;52.420;7.080;2022-09-09T01:10:58;4.80;;;3.17;;
5890;SDS011;2971;52.420;7.080;2022-09-09T01:13:28;6.63;;;3.40;;
5890;SDS011;2971;52.420;7.080;2022-09-09T01:15:59;4.00;;;3.20;;
5890;SDS011;2971;52.420;7.080;2022-09-09T01:18:26;4.23;;;3.00;;
5890;SDS011;2971;52.420;7.080;2022-09-09T01:28:45;4.17;;;3.30;;
5890;SDS011;2971;52.420;7.080;2022-09-09T01:31:13;4.73;;;3.40;;
5890;SDS011;2971;52.420;7.080;2022-09-09T01:33:40;4.97;;;3.43;;
5890;SDS011;2971;52.420;7.080;2022-09-09T01:36:06;4.43;;;3.60;;
5890;SDS011;2971;52.420;7.080;2022-09-09T01:38:33;4.30;;;3.30;;
5890;SDS011;2971;52.420;7.080;2022-09-09T01:40:59;4.73;;;3.50;;
5890;SDS011;2971;52.420;7.080;2022-09-09T01:43:24;5.80;;;3.60;;
5890;SDS011;2971;52.420;7.080;2022-09-09T01:45:51;4.30;;;3.70;;
5890;SDS011;2971;52.420;7.080;2022-09-09T01:48:18;4.80;;;3.57;;
5890;SDS011;2971;52.420;7.080;2022-09-09T01:50:44;7.10;;;3.67;;
5890;SDS011;2971;52.420;7.080;2022-09-09T01:53:09;4.43;;;3.50;;
5890;SDS011;2971;52.420;7.080;2022-09-09T01:55:40;5.47;;;3.90;;
5890;SDS011;2971;52.420;7.080;2022-09-09T02:00:31;5.33;;;3.70;;
5890;SDS011;2971;52.420;7.080;2022-09-09T02:03:08;4.83;;;4.20;;
5890;SDS011;2971;52.420;7.080;2022-09-09T02:08:06;4.43;;;3.90;;
5890;SDS011;2971;52.420;7.080;2022-09-09T02:10:33;5.23;;;4.50;;
5890;SDS011;2971;52.420;7.080;2022-09-09T02:13:04;6.30;;;4.33;;
5890;SDS011;2971;52.420;7.080;2022-09-09T02:16:15;5.50;;;4.27;;
5890;SDS011;2971;52.420;7.080;2022-09-09T02:18:24;5.50;;;4.50;;
5890;SDS011;2971;52.420;7.080;2022-09-09T02:20:52;7.17;;;5.00;;
5890;SDS011;2971;52.420;7.080;2022-09-09T02:23:18;5.17;;;4.67;;
5890;SDS011;2971;52.420;7.080;2022-09-09T02:25:44;6.70;;;5.40;;
5890;SDS011;2971;52.420;7.080;2022-09-09T02:28:11;6.53;;;5.50;;
5890;SDS011;2971;52.420;7.080;2022-09-09T02:30:37;7.13;;;5.67;;
5890;SDS011;2971;52.420;7.080;2022-09-09T02:33:04;7.27;;;5.93;;
5890;SDS011;2971;52.420;7.080;2022-09-09T02:35:31;7.40;;;6.13;;
5890;SDS011;2971;52.420;7.080;2022-09-09T02:37:59;8.17;;;6.67;;
5890;SDS011;2971;52.420;7.080;2022-09-09T02:40:26;7.37;;;6.67;;
5890;SDS011;2971;52.420;7.080;2022-09-09T02:42:51;7.50;;;6.80;;
5890;SDS011;2971;52.420;7.080;2022-09-09T02:45:20;7.20;;;6.53;;
5890;SDS011;2971;52.420;7.080;2022-09-09T02:48:02;7.43;;;6.63;;
5890;SDS011;2971;52.420;7.080;2022-09-09T02:50:31;8.17;;;6.87;;
5890;SDS011;2971;52.420;7.080;2022-09-09T02:53:06;9.50;;;6.97;;
5890;SDS011;2971;52.420;7.080;2022-09-09T02:56:34;7.33;;;6.60;;
5890;SDS011;2971;52.420;7.080;2022-09-09T02:58:27;7.83;;;7.10;;
5890;SDS011;2971;52.420;7.080;2022-09-09T03:00:53;11.63;;;6.73;;
5890;SDS011;2971;52.420;7.080;2022-09-09T03:03:18;7.43;;;6.73;;
5890;SDS011;2971;52.420;7.080;2022-09-09T03:05:44;8.20;;;7.13;;
5890;SDS011;2971;52.420;7.080;2022-09-09T03:08:10;8.23;;;7.03;;
5890;SDS011;2971;52.420;7.080;2022-09-09T03:10:36;7.53;;;6.83;;
5890;SDS011;2971;52.420;7.080;2022-09-09T03:13:02;7.43;;;6.83;;
5890;SDS011;2971;52.420;7.080;2022-09-09T03:15:27;7.10;;;6.50;;
5890;SDS011;2971;52.420;7.080;2022-09-09T03:17:55;7.33;;;6.53;;
5890;SDS011;2971;52.420;7.080;2022-09-09T03:20:20;7.27;;;6.60;;
5890;SDS011;2971;52.420;7.080;2022-09-09T03:22:45;7.33;;;6.63;;
5890;SDS011;2971;52.420;7.080;2022-09-09T03:25:10;9.70;;;6.93;;
5890;SDS011;2971;52.420;7.080;2022-09-09T03:27:35;7.07;;;6.47;;
5890;SDS011;2971;52.420;7.080;2022-09-09T03:30:01;7.20;;;6.50;;
5890;SDS011;2971;52.420;7.080;2022-09-09T03:32:28;7.10;;;6.40;;
5890;SDS011;2971;52.420;7.080;2022-09-09T03:34:54;7.63;;;6.40;;
5890;SDS011;2971;52.420;7.080;2022-09-09T03:37:19;6.13;;;5.60;;
5890;SDS011;2971;52.420;7.080;2022-09-09T03:39:45;7.83;;;6.10;;
5890;SDS011;2971;52.420;7.080;2022-09-09T03:42:13;7.27;;;5.97;;
5890;SDS011;2971;52.420;7.080;2022-09-09T03:44:45;9.00;;;6.17;;
5890;SDS011;2971;52.420;7.080;2022-09-09T03:47:14;6.10;;;5.50;;
5890;SDS011;2971;52.420;7.080;2022-09-09T03:49:40;6.20;;;5.60;;
5890;SDS011;2971;52.420;7.080;2022-09-09T03:52:05;7.00;;;5.80;;
5890;SDS011;2971;52.420;7.080;2022-09-09T03:54:30;6.60;;;6.00;;
5890;SDS011;2971;52.420;7.080;2022-09-09T03:56:55;6.30;;;5.80;;
5890;SDS011;2971;52.420;7.080;2022-09-09T03:59:20;6.83;;;6.23;;
5890;SDS011;2971;52.420;7.080;2022-09-09T04:01:46;7.27;;;6.57;;
5890;SDS011;2971;52.420;7.080;2022-09-09T04:04:12;7.43;;;6.83;;
5890;SDS011;2971;52.420;7.080;2022-09-09T04:06:37;7.27;;;6.67;;
5890;SDS011;2971;52.420;7.080;2022-09-09T04:09:02;7.20;;;6.50;;
5890;SDS011;2971;52.420;7.080;2022-09-09T04:11:27;7.93;;;7.23;;
5890;SDS011;2971;52.420;7.080;2022-09-09T04:13:53;7.77;;;7.03;;
5890;SDS011;2971;52.420;7.080;2022-09-09T04:16:18;9.30;;;8.20;;
5890;SDS011;2971;52.420;7.080;2022-09-09T04:18:43;9.03;;;8.13;;
5890;SDS011;2971;52.420;7.080;2022-09-09T04:21:09;9.60;;;8.60;;
5890;SDS011;2971;52.420;7.080;2022-09-09T04:23:35;10.77;;;9.77;;
5890;SDS011;2971;52.420;7.080;2022-09-09T04:26:01;9.13;;;8.33;;
5890;SDS011;2971;52.420;7.080;2022-09-09T04:28:28;10.07;;;9.13;;
5890;SDS011;2971;52.420;7.080;2022-09-09T04:30:53;9.97;;;8.97;;
5890;SDS011;2971;52.420;7.080;2022-09-09T04:33:19;10.57;;;9.57;;
5890;SDS011;2971;52.420;7.080;2022-09-09T04:35:45;10.37;;;9.47;;
5890;SDS011;2971;52.420;7.080;2022-09-09T04:38:10;11.43;;;10.43;;
5890;SDS011;2971;52.420;7.080;2022-09-09T04:40:35;11.63;;;10.63;;
5890;SDS011;2971;52.420;7.080;2022-09-09T04:43:01;12.73;;;11.53;;
5890;SDS011;2971;52.420;7.080;2022-09-09T04:45:28;12.80;;;11.60;;
5890;SDS011;2971;52.420;7.080;2022-09-09T04:47:53;13.10;;;12.00;;
5890;SDS011;2971;52.420;7.080;2022-09-09T04:50:18;13.37;;;12.07;;
5890;SDS011;2971;52.420;7.080;2022-09-09T04:52:44;13.53;;;12.20;;
5890;SDS011;2971;52.420;7.080;2022-09-09T04:55:09;13.47;;;12.27;;
5890;SDS011;2971;52.420;7.080;2022-09-09T04:57:34;14.40;;;12.90;;
5890;SDS011;2971;52.420;7.080;2022-09-09T05:00:00;13.90;;;12.50;;
5890;SDS011;2971;52.420;7.080;2022-09-09T05:02:26;13.87;;;12.60;;
5890;SDS011;2971;52.420;7.080;2022-09-09T05:04:51;14.33;;;13.03;;
5890;SDS011;2971;52.420;7.080;2022-09-09T05:07:16;14.97;;;13.67;;
5890;SDS011;2971;52.420;7.080;2022-09-09T05:09:41;15.67;;;14.07;;
5890;SDS011;2971;52.420;7.080;2022-09-09T05:12:07;16.83;;;15.33;;
5890;SDS011;2971;52.420;7.080;2022-09-09T05:14:33;15.90;;;14.47;;
5890;SDS011;2971;52.420;7.080;2022-09-09T05:16:58;17.13;;;15.53;;
5890;SDS011;2971;52.420;7.080;2022-09-09T05:19:23;17.43;;;15.73;;
5890;SDS011;2971;52.420;7.080;2022-09-09T05:21:49;17.73;;;16.10;;
5890;SDS011;2971;52.420;7.080;2022-09-09T05:24:15;17.03;;;15.50;;
5890;SDS011;2971;52.420;7.080;2022-09-09T05:26:40;17.43;;;15.70;;
5890;SDS011;2971;52.420;7.080;2022-09-09T05:29:05;16.27;;;14.83;;
5890;SDS011;2971;52.420;7.080;2022-09-09T05:31:32;17.17;;;15.67;;
5890;SDS011;2971;52.420;7.080;2022-09-09T05:33:57;15.40;;;14.17;;
5890;SDS011;2971;52.420;7.080;2022-09-09T05:36:23;15.37;;;13.97;;
5890;SDS011;2971;52.420;7.080;2022-09-09T05:38:49;15.97;;;14.30;;
5890;SDS011;2971;52.420;7.080;2022-09-09T05:41:15;13.90;;;12.60;;
5890;SDS011;2971;52.420;7.080;2022-09-09T05:43:41;14.00;;;12.80;;
5890;SDS011;2971;52.420;7.080;2022-09-09T05:46:09;14.00;;;12.70;;
5890;SDS011;2971;52.420;7.080;2022-09-09T05:48:36;14.17;;;12.80;;
5890;SDS011;2971;52.420;7.080;2022-09-09T05:51:02;14.03;;;12.57;;
5890;SDS011;2971;52.420;7.080;2022-09-09T05:53:28;12.73;;;11.60;;
5890;SDS011;2971;52.420;7.080;2022-09-09T05:56:01;12.73;;;11.47;;
5890;SDS011;2971;52.420;7.080;2022-09-09T05:58:28;13.37;;;11.43;;
5890;SDS011;2971;52.420;7.080;2022-09-09T06:01:02;12.37;;;11.27;;
5890;SDS011;2971;52.420;7.080;2022-09-09T06:03:27;11.80;;;10.60;;
5890;SDS011;2971;52.420;7.080;2022-09-09T06:06:03;12.17;;;11.07;;
5890;SDS011;2971;52.420;7.080;2022-09-09T06:08:30;11.73;;;10.67;;
5890;SDS011;2971;52.420;7.080;2022-09-09T06:11:00;11.40;;;10.30;;
5890;SDS011;2971;52.420;7.080;2022-09-09T06:13:27;11.17;;;10.07;;
5890;SDS011;2971;52.420;7.080;2022-09-09T06:15:52;11.30;;;10.20;;
5890;SDS011;2971;52.420;7.080;2022-09-09T06:18:18;10.77;;;9.67;;
5890;SDS011;2971;52.420;7.080;2022-09-09T06:20:52;10.57;;;8.73;;
5890;SDS011;2971;52.420;7.080;2022-09-09T06:23:18;9.77;;;8.77;;
5890;SDS011;2971;52.420;7.080;2022-09-09T06:25:45;9.93;;;8.67;;
5890;SDS011;2971;52.420;7.080;2022-09-09T06:28:10;10.10;;;8.60;;
5890;SDS011;2971;52.420;7.080;2022-09-09T06:30:36;10.93;;;7.83;;
5890;SDS011;2971;52.420;7.080;2022-09-09T06:33:03;9.00;;;8.00;;
5890;SDS011;2971;52.420;7.080;2022-09-09T06:35:28;8.23;;;7.40;;
5890;SDS011;2971;52.420;7.080;2022-09-09T06:37:53;10.37;;;7.57;;
5890;SDS011;2971;52.420;7.080;2022-09-09T06:40:19;10.67;;;7.20;;
5890;SDS011;2971;52.420;7.080;2022-09-09T06:42:44;9.43;;;7.17;;
5890;SDS011;2971;52.420;7.080;2022-09-09T06:45:09;9.40;;;7.23;;
5890;SDS011;2971;52.420;7.080;2022-09-09T06:47:35;9.60;;;7.23;;
5890;SDS011;2971;52.420;7.080;2022-09-09T06:50:00;12.10;;;7.50;;
5890;SDS011;2971;52.420;7.080;2022-09-09T06:52:25;12.03;;;7.20;;
5890;SDS011;2971;52.420;7.080;2022-09-09T06:54:50;8.07;;;6.70;;
5890;SDS011;2971;52.420;7.080;2022-09-09T06:57:16;8.67;;;7.27;;
5890;SDS011;2971;52.420;7.080;2022-09-09T06:59:41;9.47;;;7.20;;
5890;SDS011;2971;52.420;7.080;2022-09-09T07:02:07;11.53;;;6.83;;
5890;SDS011;2971;52.420;7.080;2022-09-09T07:04:33;9.30;;;7.10;;
5890;SDS011;2971;52.420;7.080;2022-09-09T07:06:58;8.67;;;6.53;;
5890;SDS011;2971;52.420;7.080;2022-09-09T07:09:23;10.00;;;6.53;;
5890;SDS011;2971;52.420;7.080;2022-09-09T07:11:50;9.37;;;6.87;;
5890;SDS011;2971;52.420;7.080;2022-09-09T07:14:18;9.13;;;6.07;;
5890;SDS011;2971;52.420;7.080;2022-09-09T07:16:44;10.37;;;5.90;;
5890;SDS011;2971;52.420;7.080;2022-09-09T07:19:10;10.67;;;6.27;;
5890;SDS011;2971;52.420;7.080;2022-09-09T07:21:36;10.07;;;5.90;;
5890;SDS011;2971;52.420;7.080;2022-09-09T07:24:01;8.97;;;5.77;;
5890;SDS011;2971;52.420;7.080;2022-09-09T07:26:28;8.03;;;5.50;;
5890;SDS011;2971;52.420;7.080;2022-09-09T07:28:53;9.27;;;5.67;;
5890;SDS011;2971;52.420;7.080;2022-09-09T07:31:21;12.47;;;5.77;;
5890;SDS011;2971;52.420;7.080;2022-09-09T07:33:47;10.80;;;5.47;;
5890;SDS011;2971;52.420;7.080;2022-09-09T07:36:18;7.67;;;5.17;;
5890;SDS011;2971;52.420;7.080;2022-09-09T07:38:45;7.80;;;4.97;;
5890;SDS011;2971;52.420;7.080;2022-09-09T07:41:11;5.37;;;4.60;;
5890;SDS011;2971;52.420;7.080;2022-09-09T07:43:38;8.20;;;4.67;;
5890;SDS011;2971;52.420;7.080;2022-09-09T07:46:04;7.20;;;4.70;;
5890;SDS011;2971;52.420;7.080;2022-09-09T07:48:30;8.43;;;4.37;;
5890;SDS011;2971;52.420;7.080;2022-09-09T07:53:30;9.13;;;4.40;;
5890;SDS011;2971;52.420;7.080;2022-09-09T07:56:01;8.27;;;4.43;;
5890;SDS011;2971;52.420;7.080;2022-09-09T07:58:26;8.83;;;4.20;;
5890;SDS011;2971;52.420;7.080;2022-09-09T08:00:52;7.70;;;4.57;;
5890;SDS011;2971;52.420;7.080;2022-09-09T08:03:17;9.00;;;4.37;;
5890;SDS011;2971;52.420;7.080;2022-09-09T08:05:42;7.17;;;4.07;;
5890;SDS011;2971;52.420;7.080;2022-09-09T08:08:08;9.83;;;4.27;;
5890;SDS011;2971;52.420;7.080;2022-09-09T08:10:34;8.07;;;4.43;;
5890;SDS011;2971;52.420;7.080;2022-09-09T08:12:59;10.20;;;4.50;;
5890;SDS011;2971;52.420;7.080;2022-09-09T08:15:24;8.93;;;4.67;;
5890;SDS011;2971;52.420;7.080;2022-09-09T08:17:49;8.90;;;4.63;;
5890;SDS011;2971;52.420;7.080;2022-09-09T08:20:15;8.70;;;3.87;;
5890;SDS011;2971;52.420;7.080;2022-09-09T08:22:40;8.50;;;3.60;;
5890;SDS011;2971;52.420;7.080;2022-09-09T08:25:07;9.20;;;3.60;;
5890;SDS011;2971;52.420;7.080;2022-09-09T08:27:33;11.53;;;3.90;;
5890;SDS011;2971;52.420;7.080;2022-09-09T08:29:58;6.40;;;3.30;;
5890;SDS011;2971;52.420;7.080;2022-09-09T08:32:24;7.37;;;3.20;;
5890;SDS011;2971;52.420;7.080;2022-09-09T08:34:49;9.37;;;3.47;;
5890;SDS011;2971;52.420;7.080;2022-09-09T08:37:14;9.43;;;4.13;;
5890;SDS011;2971;52.420;7.080;2022-09-09T08:39:39;11.53;;;3.77;;
5890;SDS011;2971;52.420;7.080;2022-09-09T08:54:52;7.93;;;3.30;;
5890;SDS011;2971;52.420;7.080;2022-09-09T08:57:21;7.63;;;3.10;;
5890;SDS011;2971;52.420;7.080;2022-09-09T08:59:51;7.63;;;3.23;;
5890;SDS011;2971;52.420;7.080;2022-09-09T09:02:32;9.40;;;3.07;;
5890;SDS011;2971;52.420;7.080;2022-09-09T09:13:01;6.03;;;2.83;;
5890;SDS011;2971;52.420;7.080;2022-09-09T09:15:29;7.53;;;2.83;;
5890;SDS011;2971;52.420;7.080;2022-09-09T09:17:55;8.10;;;2.93;;
5890;SDS011;2971;52.420;7.080;2022-09-09T09:20:23;9.33;;;2.97;;
5890;SDS011;2971;52.420;7.080;2022-09-09T09:22:52;8.73;;;3.10;;
5890;SDS011;2971;52.420;7.080;2022-09-09T09:25:22;9.03;;;3.10;;
5890;SDS011;2971;52.420;7.080;2022-09-09T09:27:49;7.70;;;2.90;;
5890;SDS011;2971;52.420;7.080;2022-09-09T09:30:19;6.80;;;3.00;;
5890;SDS011;2971;52.420;7.080;2022-09-09T09:35:19;7.03;;;2.87;;
5890;SDS011;2971;52.420;7.080;2022-09-09T09:37:44;7.43;;;3.03;;
5890;SDS011;2971;52.420;7.080;2022-09-09T09:40:11;9.27;;;3.00;;
5890;SDS011;2971;52.420;7.080;2022-09-09T09:42:37;9.33;;;2.90;;
5890;SDS011;2971;52.420;7.080;2022-09-09T09:47:57;6.00;;;2.70;;
5890;SDS011;2971;52.420;7.080;2022-09-09T09:50:22;10.40;;;2.90;;
5890;SDS011;2971;52.420;7.080;2022-09-09T09:52:57;9.93;;;2.87;;
5890;SDS011;2971;52.420;7.080;2022-09-09T09:55:23;7.97;;;2.97;;
5890;SDS011;2971;52.420;7.080;2022-09-09T09:57:49;9.30;;;2.87;;
5890;SDS011;2971;52.420;7.080;2022-09-09T10:00:19;7.43;;;2.87;;
5890;SDS011;2971;52.420;7.080;2022-09-09T10:02:46;7.00;;;2.80;;
5890;SDS011;2971;52.420;7.080;2022-09-09T10:07:36;6.80;;;2.17;;
5890;SDS011;2971;52.420;7.080;2022-09-09T10:10:04;5.80;;;2.10;;
5890;SDS011;2971;52.420;7.080;2022-09-09T10:20:13;7.60;;;1.97;;
5890;SDS011;2971;52.420;7.080;2022-09-09T10:22:44;6.20;;;2.17;;
5890;SDS011;2971;52.420;7.080;2022-09-09T10:25:22;11.37;;;2.27;;
5890;SDS011;2971;52.420;7.080;2022-09-09T10:31:12;5.00;;;2.17;;
5890;SDS011;2971;52.420;7.080;2022-09-09T10:33:24;8.63;;;1.93;;
5890;SDS011;2971;52.420;7.080;2022-09-09T10:41:00;7.67;;;2.13;;
5890;SDS011;2971;52.420;7.080;2022-09-09T10:48:46;6.87;;;2.10;;
5890;SDS011;2971;52.420;7.080;2022-09-09T10:51:23;5.50;;;2.10;;
5890;SDS011;2971;52.420;7.080;2022-09-09T10:56:55;4.53;;;2.33;;
5890;SDS011;2971;52.420;7.080;2022-09-09T10:59:26;4.90;;;2.10;;
5890;SDS011;2971;52.420;7.080;2022-09-09T11:01:56;6.77;;;2.13;;
5890;SDS011;2971;52.420;7.080;2022-09-09T11:07:02;7.40;;;2.33;;
5890;SDS011;2971;52.420;7.080;2022-09-09T11:09:31;6.13;;;2.03;;
5890;SDS011;2971;52.420;7.080;2022-09-09T11:11:58;4.83;;;1.90;;
5890;SDS011;2971;52.420;7.080;2022-09-09T11:14:36;4.67;;;1.70;;
5890;SDS011;2971;52.420;7.080;2022-09-09T11:17:36;3.10;;;1.60;;
5890;SDS011;2971;52.420;7.080;2022-09-09T11:19:53;5.47;;;1.80;;
5890;SDS011;2971;52.420;7.080;2022-09-09T11:24:59;4.70;;;1.63;;
5890;SDS011;2971;52.420;7.080;2022-09-09T11:27:32;3.77;;;1.80;;
5890;SDS011;2971;52.420;7.080;2022-09-09T11:42:31;6.97;;;2.17;;
5890;SDS011;2971;52.420;7.080;2022-09-09T11:44:56;4.43;;;1.60;;
5890;SDS011;2971;52.420;7.080;2022-09-09T11:47:29;4.03;;;1.70;;
5890;SDS011;2971;52.420;7.080;2022-09-09T11:50:08;2.77;;;1.50;;
5890;SDS011;2971;52.420;7.080;2022-09-09T11:52:38;5.33;;;1.80;;
5890;SDS011;2971;52.420;7.080;2022-09-09T11:55:11;3.37;;;1.53;;
5890;SDS011;2971;52.420;7.080;2022-09-09T11:57:37;4.57;;;1.87;;
5890;SDS011;2971;52.420;7.080;2022-09-09T12:00:03;5.17;;;1.80;;
5890;SDS011;2971;52.420;7.080;2022-09-09T12:02:29;3.60;;;1.67;;
5890;SDS011;2971;52.420;7.080;2022-09-09T12:04:59;3.87;;;1.70;;
5890;SDS011;2971;52.420;7.080;2022-09-09T12:09:52;4.20;;;1.70;;
5890;SDS011;2971;52.420;7.080;2022-09-09T12:12:22;4.43;;;1.60;;
5890;SDS011;2971;52.420;7.080;2022-09-09T12:17:36;6.43;;;1.80;;
5890;SDS011;2971;52.420;7.080;2022-09-09T12:20:15;6.03;;;1.70;;
5890;SDS011;2971;52.420;7.080;2022-09-09T12:25:32;6.10;;;1.60;;
5890;SDS011;2971;52.420;7.080;2022-09-09T12:28:00;7.17;;;1.80;;
5890;SDS011;2971;52.420;7.080;2022-09-09T12:30:32;3.53;;;1.67;;
5890;SDS011;2971;52.420;7.080;2022-09-09T12:33:08;5.10;;;1.90;;
5890;SDS011;2971;52.420;7.080;2022-09-09T12:35:35;4.23;;;1.80;;
5890;SDS011;2971;52.420;7.080;2022-09-09T12:38:03;3.60;;;1.63;;
5890;SDS011;2971;52.420;7.080;2022-09-09T12:40:32;5.77;;;1.47;;
5890;SDS011;2971;52.420;7.080;2022-09-09T12:43:00;4.60;;;1.80;;
5890;SDS011;2971;52.420;7.080;2022-09-09T12:45:27;4.77;;;1.93;;
5890;SDS011;2971;52.420;7.080;2022-09-09T12:47:54;4.90;;;1.70;;
5890;SDS011;2971;52.420;7.080;2022-09-09T12:50:22;6.07;;;1.67;;
5890;SDS011;2971;52.420;7.080;2022-09-09T12:52:47;5.83;;;1.80;;
5890;SDS011;2971;52.420;7.080;2022-09-09T12:55:21;4.27;;;1.60;;
5890;SDS011;2971;52.420;7.080;2022-09-09T12:57:46;3.80;;;1.70;;
5890;SDS011;2971;52.420;7.080;2022-09-09T13:00:15;5.20;;;1.60;;
5890;SDS011;2971;52.420;7.080;2022-09-09T13:02:45;4.17;;;1.90;;
5890;SDS011;2971;52.420;7.080;2022-09-09T13:05:18;5.63;;;1.53;;
5890;SDS011;2971;52.420;7.080;2022-09-09T13:07:45;5.37;;;2.00;;
5890;SDS011;2971;52.420;7.080;2022-09-09T13:10:11;3.83;;;1.47;;
5890;SDS011;2971;52.420;7.080;2022-09-09T13:12:36;5.23;;;1.47;;
5890;SDS011;2971;52.420;7.080;2022-09-09T13:15:02;3.03;;;1.60;;
5890;SDS011;2971;52.420;7.080;2022-09-09T13:17:28;3.70;;;1.50;;
5890;SDS011;2971;52.420;7.080;2022-09-09T13:19:56;3.30;;;1.40;;
5890;SDS011;2971;52.420;7.080;2022-09-09T13:22:43;3.07;;;1.43;;
5890;SDS011;2971;52.420;7.080;2022-09-09T13:27:37;3.40;;;1.87;;
5890;SDS011;2971;52.420;7.080;2022-09-09T13:30:23;6.27;;;1.70;;
5890;SDS011;2971;52.420;7.080;2022-09-09T13:33:34;2.23;;;1.30;;
5890;SDS011;2971;52.420;7.080;2022-09-09T13:35:34;4.93;;;1.80;;
5890;SDS011;2971;52.420;7.080;2022-09-09T13:38:07;4.30;;;1.60;;
5890;SDS011;2971;52.420;7.080;2022-09-09T13:40:33;2.60;;;1.40;;
5890;SDS011;2971;52.420;7.080;2022-09-09T13:42:59;5.03;;;1.50;;
5890;SDS011;2971;52.420;7.080;2022-09-09T13:45:25;3.43;;;1.67;;
5890;SDS011;2971;52.420;7.080;2022-09-09T13:47:55;7.10;;;2.23;;
5890;SDS011;2971;52.420;7.080;2022-09-09T13:50:27;5.17;;;2.07;;
5890;SDS011;2971;52.420;7.080;2022-09-09T13:52:53;9.20;;;2.57;;
5890;SDS011;2971;52.420;7.080;2022-09-09T13:55:22;5.37;;;2.37;;
5890;SDS011;2971;52.420;7.080;2022-09-09T13:57:58;4.70;;;2.23;;
5890;SDS011;2971;52.420;7.080;2022-09-09T14:00:25;4.57;;;2.03;;
5890;SDS011;2971;52.420;7.080;2022-09-09T14:02:51;5.40;;;2.20;;
5890;SDS011;2971;52.420;7.080;2022-09-09T14:05:17;4.77;;;1.90;;
5890;SDS011;2971;52.420;7.080;2022-09-09T14:07:43;5.00;;;1.70;;
5890;SDS011;2971;52.420;7.080;2022-09-09T14:10:08;3.97;;;1.90;;
5890;SDS011;2971;52.420;7.080;2022-09-09T14:12:33;4.87;;;2.10;;
5890;SDS011;2971;52.420;7.080;2022-09-09T14:14:59;4.40;;;1.50;;
5890;SDS011;2971;52.420;7.080;2022-09-09T14:17:25;3.87;;;1.70;;
5890;SDS011;2971;52.420;7.080;2022-09-09T14:19:52;3.87;;;1.50;;
5890;SDS011;2971;52.420;7.080;2022-09-09T14:22:17;3.27;;;1.47;;
5890;SDS011;2971;52.420;7.080;2022-09-09T14:24:42;3.63;;;1.70;;
5890;SDS011;2971;52.420;7.080;2022-09-09T14:27:08;4.37;;;1.83;;
5890;SDS011;2971;52.420;7.080;2022-09-09T14:29:33;3.20;;;1.70;;
5890;SDS011;2971;52.420;7.080;2022-09-09T14:31:58;4.40;;;2.03;;
5890;SDS011;2971;52.420;7.080;2022-09-09T14:34:25;2.73;;;1.67;;
5890;SDS011;2971;52.420;7.080;2022-09-09T14:36:51;1.73;;;1.50;;
5890;SDS011;2971;52.420;7.080;2022-09-09T14:39:16;2.70;;;1.40;;
5890;SDS011;2971;52.420;7.080;2022-09-09T14:41:41;3.57;;;1.40;;
5890;SDS011;2971;52.420;7.080;2022-09-09T14:44:06;2.00;;;1.33;;
5890;SDS011;2971;52.420;7.080;2022-09-09T14:46:33;2.10;;;1.30;;
5890;SDS011;2971;52.420;7.080;2022-09-09T14:48:58;3.23;;;1.63;;
5890;SDS011;2971;52.420;7.080;2022-09-09T14:51:24;3.33;;;1.60;;
5890;SDS011;2971;52.420;7.080;2022-09-09T14:53:53;2.60;;;1.27;;
5890;SDS011;2971;52.420;7.080;2022-09-09T14:56:20;2.03;;;1.40;;
5890;SDS011;2971;52.420;7.080;2022-09-09T14:58:47;3.80;;;1.50;;
5890;SDS011;2971;52.420;7.080;2022-09-09T15:01:14;2.80;;;1.50;;
5890;SDS011;2971;52.420;7.080;2022-09-09T15:03:39;3.23;;;1.60;;
5890;SDS011;2971;52.420;7.080;2022-09-09T15:06:08;2.53;;;1.60;;
5890;SDS011;2971;52.420;7.080;2022-09-09T15:08:35;3.70;;;2.13;;
5890;SDS011;2971;52.420;7.080;2022-09-09T15:11:01;3.47;;;1.67;;
5890;SDS011;2971;52.420;7.080;2022-09-09T15:13:26;3.53;;;1.63;;
5890;SDS011;2971;52.420;7.080;2022-09-09T15:15:51;2.93;;;1.37;;
5890;SDS011;2971;52.420;7.080;2022-09-09T15:18:16;3.63;;;1.70;;
5890;SDS011;2971;52.420;7.080;2022-09-09T15:20:45;5.30;;;1.80;;
5890;SDS011;2971;52.420;7.080;2022-09-09T15:23:11;2.87;;;1.87;;
5890;SDS011;2971;52.420;7.080;2022-09-09T15:25:36;6.17;;;2.03;;
5890;SDS011;2971;52.420;7.080;2022-09-09T15:28:01;3.53;;;2.00;;
5890;SDS011;2971;52.420;7.080;2022-09-09T15:30:27;6.97;;;2.17;;
5890;SDS011;2971;52.420;7.080;2022-09-09T15:32:52;4.70;;;2.20;;
5890;SDS011;2971;52.420;7.080;2022-09-09T15:35:18;4.00;;;2.20;;
5890;SDS011;2971;52.420;7.080;2022-09-09T15:37:43;3.33;;;1.97;;
5890;SDS011;2971;52.420;7.080;2022-09-09T15:40:10;4.23;;;1.83;;
5890;SDS011;2971;52.420;7.080;2022-09-09T15:42:35;3.80;;;1.80;;
5890;SDS011;2971;52.420;7.080;2022-09-09T15:45:00;4.03;;;2.00;;
5890;SDS011;2971;52.420;7.080;2022-09-09T15:47:25;4.27;;;2.07;;
5890;SDS011;2971;52.420;7.080;2022-09-09T15:49:51;4.60;;;2.00;;
5890;SDS011;2971;52.420;7.080;2022-09-09T15:52:17;3.97;;;1.93;;
5890;SDS011;2971;52.420;7.080;2022-09-09T15:54:42;2.97;;;1.90;;
5890;SDS011;2971;52.420;7.080;2022-09-09T15:57:11;3.07;;;2.13;;
5890;SDS011;2971;52.420;7.080;2022-09-09T15:59:37;3.67;;;2.20;;
5890;SDS011;2971;52.420;7.080;2022-09-09T16:02:02;6.00;;;2.83;;
5890;SDS011;2971;52.420;7.080;2022-09-09T16:04:29;4.93;;;2.40;;
5890;SDS011;2971;52.420;7.080;2022-09-09T16:07:02;4.93;;;2.20;;
5890;SDS011;2971;52.420;7.080;2022-09-09T16:09:28;6.23;;;2.63;;
5890;SDS011;2971;52.420;7.080;2022-09-09T16:11:55;4.27;;;2.23;;
5890;SDS011;2971;52.420;7.080;2022-09-09T16:14:20;5.67;;;2.43;;
5890;SDS011;2971;52.420;7.080;2022-09-09T16:16:46;5.07;;;2.20;;
5890;SDS011;2971;52.420;7.080;2022-09-09T16:19:12;4.67;;;2.07;;
5890;SDS011;2971;52.420;7.080;2022-09-09T16:21:44;5.97;;;2.90;;
5890;SDS011;2971;52.420;7.080;2022-09-09T16:24:11;5.47;;;2.70;;
5890;SDS011;2971;52.420;7.080;2022-09-09T16:26:38;5.90;;;3.40;;
5890;SDS011;2971;52.420;7.080;2022-09-09T16:29:04;5.47;;;3.57;;
5890;SDS011;2971;52.420;7.080;2022-09-09T16:31:29;5.07;;;2.60;;
5890;SDS011;2971;52.420;7.080;2022-09-09T16:33:55;7.30;;;2.60;;
5890;SDS011;2971;52.420;7.080;2022-09-09T16:36:22;4.63;;;2.83;;
5890;SDS011;2971;52.420;7.080;2022-09-09T16:38:48;7.40;;;3.20;;
5890;SDS011;2971;52.420;7.080;2022-09-09T16:41:14;6.77;;;3.23;;
5890;SDS011;2971;52.420;7.080;2022-09-09T16:43:39;4.57;;;3.03;;
5890;SDS011;2971;52.420;7.080;2022-09-09T16:46:18;4.30;;;2.90;;
5890;SDS011;2971;52.420;7.080;2022-09-09T16:48:44;5.20;;;2.87;;
5890;SDS011;2971;52.420;7.080;2022-09-09T16:51:29;5.17;;;2.97;;
5890;SDS011;2971;52.420;7.080;2022-09-09T16:53:55;7.03;;;2.77;;
5890;SDS011;2971;52.420;7.080;2022-09-09T16:56:23;6.03;;;3.03;;
5890;SDS011;2971;52.420;7.080;2022-09-09T16:58:52;5.13;;;2.60;;
5890;SDS011;2971;52.420;7.080;2022-09-09T17:01:20;5.30;;;2.73;;
5890;SDS011;2971;52.420;7.080;2022-09-09T17:03:45;5.73;;;2.90;;
5890;SDS011;2971;52.420;7.080;2022-09-09T17:06:11;5.77;;;3.00;;
5890;SDS011;2971;52.420;7.080;2022-09-09T17:08:38;5.33;;;3.00;;
5890;SDS011;2971;52.420;7.080;2022-09-09T17:11:04;6.77;;;2.70;;
5890;SDS011;2971;52.420;7.080;2022-09-09T17:13:29;5.30;;;2.70;;